Flugplatz Hetzleser Berg

Für EDQX sind keine METAR/TAF Berichte vorhanden.
Es werden die Flugwettermeldungen vom Flugplatz Nuremberg in 17 km Entfernung angezeigt.

Bericht für EDDN

vom 01.12. um 08:50 UTC

Wind 9 kt aus 200°

Sichtweite 10 km oder mehr

aufgelockert bewölkt in 3100 ft

Temperatur 6.0°C

Taupunkt 3.0°C

Luftfeuchtigkeit 81%

Luftdruck 1002 hPa

keine wesentliche Wetteränderung innerhalb den nächsten 2 Stunden zu erwarten

EDDN 010850Z 20009KT 9999 SCT031 06/03 Q1002 NOSIG

Prognose für EDDN

vom 01.12. um 05:27 UTC

Zwischen 06:00 UTC und 08:00 UTC

Wind 10 kt aus 210°

Sichtweite 10 km oder mehr

aufgebrochene Bewölkung in 1100 ft


Zwischen 06:00 UTC und 08:00 UTC zeitweise

aufgebrochene Bewölkung in 800 ft


Zwischen 08:00 und 10:00 UTC übergehend zu

Wind 10 kt aus 210°

Sichtweite 10 km oder mehr

aufgebrochene Bewölkung in 2000 ft


Zwischen 11:00 und 13:00 UTC übergehend zu

Wind 15 kt aus 250° in Böen 25 kt

Sichtweite 10 km oder mehr

aufgebrochene Bewölkung in 2000 ft


Zwischen 18:00 UTC und 06:00 UTC zeitweise

aufgebrochene Bewölkung in 1200 ft


Am 02.12. zwischen 01:00 und 03:00 UTC übergehend zu

Wind 8 kt aus 260°

Sichtweite 10 km oder mehr

aufgebrochene Bewölkung in 2000 ft

TAF COR EDDN 010527Z 0106/0206 21010KT 9999 BKN011 TEMPO 0106/0108 BKN008 BECMG 0108/0110 BKN020 BECMG 0111/0113 25015G25KT TEMPO 0118/0206 BKN012 BECMG 0201/0203 26008KT
Impressum